Aviation Digital Data Service (ADDS)

Output produced by METARs form (1824 UTC 22 November 2017)
found at http://www.aviationweather.gov/adds/metars/
 
VTBD 221800Z 00000KT 9999 FEW030 26/25 Q1010 NOSIG
TAF VTBD 221700Z 2218/2324 35005KT 9999 FEW030 
     BECMG 2302/2304 06008KT FEW025 
     BECMG 2314/2316 35005KT
       
TAF VTUO 221700Z 2218/2318 03006KT 9000 FEW022 
     BECMG 2302/2304 06012KT FEW022
       
VTCC 221800Z 00000KT 9999 FEW040 24/21 Q1014 NOSIG
TAF VTCC 221700Z 2218/2324 24005KT 9999 SCT030
       
VTCT 221800Z 27003KT 9999 FEW030 SCT100 23/23 Q1013
TAF VTCT 221700Z 2218/2324 22005KT 9999 SCT030 
     BECMG 2222/2224 2000 BR 
     BECMG 2301/2303 9999 NSW 
     TEMPO 2308/2312 VRB10KT 4000 TSRA FEW020CB BKN030
       
TAF VTSE 221700Z 2218/2318 05008KT 9999 FEW020 
     TEMPO 2221/2303 VRB15KT 3000 TSRA FEW016CB SCT018 BKN100 
     TEMPO 2304/2310 3000 RA SCT015 OVC100
       
VTSS 221800Z 00000KT 9999 FEW020 BKN100 25/25 Q1008 NOSIG
TAF VTSS 221700Z 2218/2318 05004KT 9999 SCT020 BKN100 
     TEMPO 2221/2303 VRB15KT 3000 RA SCT015 OVC100 
     TEMPO 2310/2316 VRB15KT 3000 RA SCT015 OVC100
       
TAF VTPH 221700Z 2218/2318 00000KT 9999 FEW030 
     BECMG 2302/2304 05008KT 
     BECMG 2314/2316 00000KT
       
VTUK 221800Z 07004KT 040V100 CAVOK 23/21 Q1013 NOSIG
TAF VTUK 221700Z 2218/2318 08005KT 9999 FEW030 
     BECMG 2304/2306 03010KT 9999 FEW030 SCT100 
     BECMG 2314/2316 06008KT 9999 FEW030
       
VTSG 221800Z VRB01KT 5000 BR BKN025 25/24 Q1009
TAF VTSG 221700Z 2218/2318 VRB02KT 9000 SCT020 
     BECMG 2302/2304 09004KT 9999 FEW020 
     TEMPO 2308/2312 VRB10G20KT 5000 TSRA FEW018CB SCT020 BKN100 
     BECMG 2312/2314 VRB02KT 9000 SCT020
       
TAF VTCL 221700Z 2218/2318 16005KT 9999 SCT030 
     BECMG 2222/2224 3000 BR 
     BECMG 2301/2303 9999 NSW
       
TAF VTUL 221700Z 2218/2318 VRB03KT 9999 FEW030 
     BECMG 2304/2306 03008KT 9999 FEW030 SCT100 
     BECMG 2314/2316 08005KT 9999 FEW030
       
TAF VTCH 221700Z 2218/2318 22005KT 9999 SCT030 
     BECMG 2222/2224 2000 BR 
     BECMG 2301/2303 9999 NSW 
     TEMPO 2308/2312 VRB10KT 4000 TSRA FEW020CB BKN030
       
TAF VTPM 221700Z 2218/2318 24005KT 9999 SCT030 
     TEMPO 2308/2312 VRB15KT 4000 TSRA FEW020CB BKN030
       
TAF VTUW 221700Z 2218/2318 14008KT 9999 FEW030 
     BECMG 2304/2306 04010KT 9999 FEW030 SCT100 
     BECMG 2314/2316 10008KT 9999 FEW030
       
VTUQ 221800Z AUTO 04007KT ////NDV ////// 22/21 Q1013 A2991
TAF VTUQ 221700Z 2218/2318 04006KT 9999 FEW025 
     BECMG 2302/2304 06010KT FEW025
       
VTSF 221300Z 00000KT 9999 SCT018 26/25 Q1008
TAF VTSF 221700Z 2218/2318 VRB02KT 9999 SCT020 
     TEMPO 2221/2303 VRB15KT 3000 TSRA FEW016CB SCT018 BKN100 
     BECMG 2304/2306 08010KT 
     TEMPO 2307/2313 VRB15KT 3000 TSRA FEW016CB SCT018 BKN100 
     BECMG 2313/2315 VRB02KT
       
TAF VTCN 221700Z 2218/2318 16005KT 9999 FEW030 
     BECMG 2222/2224 2000 BR 
     BECMG 2301/2303 9999 NSW
       
TAF VTSC 221700Z 2218/2318 17005KT 9999 SCT020 BKN100 
     TEMPO 2222/2304 VRB15KT 3000 TSRA FEW016CB SCT018 BKN100 
     BECMG 2304/2306 08010KT 
     TEMPO 2308/2314 VRB15KT 6000 -TSRA FEW016CB SCT018 BKN100 
     BECMG 2314/2316 15004KT
       
TAF VTSK 221700Z 2218/2318 06006KT 9999 SCT020 
     TEMPO 2221/2303 VRB15KT 3000 TSRA FEW016CB SCT018 BKN100 
     TEMPO 2308/2314 VRB15KT 6000 -TSRA FEW016CB SCT018 BKN100
       
TAF VTPB 221700Z 2218/2318 16005KT 9999 FEW030
       
TAF VTPP 221700Z 2218/2318 16005KT 9999 FEW030
       
VTCP 221800Z AUTO 00000KT 9999 // ////// 23/23 Q1012
TAF VTCP 221700Z 2218/2318 16005KT 9999 FEW030 
     BECMG 2222/2224 3000 BR 
     BECMG 2301/2303 9999 NSW
       
VTSP 221800Z VRB01KT 8000 SCT020 BKN100 25/24 Q1010 NOSIG
TAF VTSP 221700Z 2218/2324 VRB02KT 8000 SCT020 BKN100 
     TEMPO 2218/2222 VRB10G20KT 5000 TSRA FEW018CB SCT020 BKN100 
     BECMG 2302/2304 09006KT 9999 FEW020 
     TEMPO 2308/2312 VRB10G20KT 5000 TSRA FEW018CB SCT020 BKN100 
     BECMG 2312/2314 VRB02KT 9000
       
TAF VTSR 221700Z 2218/2318 VRB02KT 9000 FEW025 
     BECMG 2302/2304 10008KT 9999 
     TEMPO 2306/2310 VRB10G20KT 5000 TSRA FEW018CB SCT020 BKN100 
     BECMG 2312/2314 VRB02KT 9000
       
VTUV 221300Z 07007KT 8000 FEW025 25/19 Q1012 A2990 INFO N RWY 36
TAF VTUV 221700Z 2218/2318 05008KT 9000 FEW025 
     BECMG 2302/2304 06010KT FEW025
       
VTUI 221400Z 13008KT 080V150 9999 FEW040 23/18 Q1014
TAF VTUI 221700Z 2218/2318 12008KT 9999 FEW030 
     BECMG 2304/2306 04010KT 9999 FEW030 SCT100 
     BECMG 2314/2316 08008KT 9999 FEW030
       
VTSM 221500Z 00000KT 8000 FEW020 29/25 Q1010
TAF VTSM 221700Z 2218/2318 09008KT 9999 FEW020 SCT100 
     TEMPO 2221/2303 6000 -RA SCT015 OVC100 
     TEMPO 2309/2315 6000 -RA SCT015 OVC100
       
TAF VTSH 221700Z 2218/2318 08008KT 9999 SCT020 BKN100 
     TEMPO 2219/2301 08010G20KT 3000 TSRA FEW016CB SCT018 BKN100 
     TEMPO 2312/2318 08010G20KT 3000 TSRA FEW016CB SCT018 BKN100
       
TAF VTPO 221700Z 2218/2318 16005KT 9999 FEW030
       
VTSB 221800Z 33005KT 5000 BR SCT020 25/25 Q1009
TAF VTSB 221700Z 2218/2318 05004KT 8000 FEW020 
     BECMG 2220/2222 5000 BR 
     BECMG 2301/2303 9999 NSW 
     TEMPO 2306/2312 6000 -RA SCT015 OVC100
       
TAF VTPT 221700Z 2218/2318 24005KT 9999 SCT030 
     TEMPO 2308/2312 VRB15KT 4000 TSRA FEW020CB BKN030
       
VTST 221300Z 00000KT 8000 -RA FEW018 SCT025 26/25 Q1007
TAF VTST 221700Z 2218/2318 VRB02KT 9000 SCT020 
     BECMG 2302/2304 08004KT 9999 FEW020 
     TEMPO 2308/2312 VRB10G20KT 5000 TSRA FEW018CB SCT020 BKN100 
     BECMG 2312/2314 VRB02KT 9000 SCT020
       
VTBU 221800Z 34006KT 5000 BR FEW020 25/23 Q1010 NOSIG
TAF VTBU 221700Z 2218/2318 34004KT 5000 BR FEW020 
     BECMG 2220/2222 05006KT 3000 BR 
     BECMG 2302/2304 12008KT 7000
       
VTUU 221800Z 05007KT 9000 SCT025 BKN100 23/19 Q1011 NOSIG
TAF VTUU 221700Z 2218/2318 05008KT 9000 FEW025 BKN100 
     BECMG 2302/2304 06012KT FEW025
       
VTUD 221500Z 11003KT CAVOK 25/20 Q1013
TAF VTUD 221700Z 2218/2318 10005KT 9999 FEW030 
     BECMG 2304/2306 04010KT 9999 FEW030 SCT100 
     BECMG 2314/2316 08008KT 9999 FEW030